Time;durP1;ratioP1;P1;durP2;ratioP2;P2;SDS_P1;SDS_P2;PMS_P1;PMS_P2;Temp;Humidity;BMP_temperature;BMP_pressure;BME280_temperature;BME280_humidity;BME280_pressure;Samples;Min_cycle;Max_cycle;Signal;HPM_P1;HPM_P2
2021/07/23 00:01:41;;;;;;;14.00;9.63;;;563.90;2432.00;;;;;;4843466;29;20045;-74
2021/07/23 00:04:07;;;;;;;12.75;8.27;;;563.90;2432.00;;;;;;4843163;29;20478;-74
2021/07/23 00:06:33;;;;;;;14.15;9.27;;;563.90;2432.00;;;;;;4842487;29;20029;-74
2021/07/23 00:08:58;;;;;;;14.80;9.95;;;564.00;2432.00;;;;;;4843295;29;20496;-75
2021/07/23 00:11:24;;;;;;;15.88;11.30;;;564.00;2432.00;;;;;;4843037;29;20093;-74
2021/07/23 00:13:50;;;;;;;18.20;11.27;;;563.80;2432.00;;;;;;4841765;29;20037;-74
2021/07/23 00:16:15;;;;;;;16.10;10.20;;;563.80;2432.00;;;;;;4842798;29;20030;-74
2021/07/23 00:18:41;;;;;;;18.00;10.90;;;563.70;2432.00;;;;;;4841616;29;20073;-74
2021/07/23 00:21:07;;;;;;;18.15;10.63;;;563.60;2432.00;;;;;;4841822;29;20141;-74
2021/07/23 00:23:32;;;;;;;15.82;11.32;;;563.50;2432.00;;;;;;4843162;29;20022;-74
2021/07/23 00:25:58;;;;;;;20.30;12.32;;;563.40;2432.00;;;;;;4842944;29;20115;-74
2021/07/23 00:28:24;;;;;;;17.30;11.23;;;563.40;2432.00;;;;;;4842962;29;20065;-74
2021/07/23 00:30:49;;;;;;;19.88;12.00;;;563.30;2432.00;;;;;;4842600;29;20040;-74
2021/07/23 00:33:15;;;;;;;18.38;12.77;;;538.50;2406.40;;;;;;4842961;29;20095;-74
2021/07/23 00:35:41;;;;;;;17.83;12.07;;;538.50;2406.40;;;;;;4841328;29;20057;-74
2021/07/23 00:38:07;;;;;;;18.33;11.85;;;538.50;2406.40;;;;;;4842689;29;20078;-74
2021/07/23 00:40:34;;;;;;;20.23;11.98;;;538.50;2406.40;;;;;;4841834;29;20109;-74
2021/07/23 00:42:59;;;;;;;17.42;12.70;;;563.20;2432.00;;;;;;4842628;29;20026;-74
2021/07/23 00:45:25;;;;;;;16.95;12.60;;;563.20;2432.00;;;;;;4842608;29;20037;-74
2021/07/23 00:48:01;;;;;;;18.30;12.30;;;563.20;2432.00;;;;;;4842387;29;20129;-74
2021/07/23 00:50:30;;;;;;;20.38;12.55;;;563.20;2432.00;;;;;;4842548;29;20390;-74
2021/07/23 00:52:57;;;;;;;18.90;12.65;;;538.50;2406.40;;;;;;4842379;29;20037;-74
2021/07/23 00:55:24;;;;;;;22.88;14.65;;;538.50;2406.40;;;;;;4842609;29;20030;-74
2021/07/23 00:57:51;;;;;;;17.08;12.63;;;538.30;2406.40;;;;;;4842169;29;20029;-74
2021/07/23 01:00:17;;;;;;;19.17;13.70;;;538.10;2406.40;;;;;;4842226;29;20141;-75
2021/07/23 01:02:43;;;;;;;17.65;13.57;;;538.00;2406.40;;;;;;4841067;29;20033;-75
2021/07/23 01:05:10;;;;;;;21.23;13.38;;;537.90;2406.40;;;;;;4840856;29;20112;-74
2021/07/23 01:07:36;;;;;;;19.65;13.50;;;537.90;2406.40;;;;;;4840957;29;20433;-74
2021/07/23 01:10:04;;;;;;;19.23;13.45;;;537.90;2406.40;;;;;;4841703;29;20105;-74
2021/07/23 01:12:30;;;;;;;25.20;13.60;;;537.90;2406.40;;;;;;4841172;29;20042;-74
2021/07/23 01:14:57;;;;;;;17.50;12.40;;;538.00;2406.40;;;;;;4842083;29;20041;-74
2021/07/23 01:17:23;;;;;;;17.42;12.18;;;538.00;2406.40;;;;;;4842021;29;20026;-75
2021/07/23 01:20:37;;;;;;;17.58;12.88;;;538.00;2406.40;;;;;;4841431;29;20801;-75
2021/07/23 01:23:03;;;;;;;19.05;11.85;;;538.00;2406.40;;;;;;4788201;29;20598;-74
2021/07/23 01:25:30;;;;;;;23.40;14.48;;;538.00;2406.40;;;;;;4803421;29;20419;-74
2021/07/23 01:27:57;;;;;;;16.75;11.52;;;538.00;2406.40;;;;;;4784976;29;20035;-74
2021/07/23 01:30:24;;;;;;;19.08;13.15;;;538.00;2406.40;;;;;;4799768;29;20067;-75
2021/07/23 01:32:51;;;;;;;19.88;12.10;;;538.00;2406.40;;;;;;4802971;29;20081;-75
2021/07/23 01:35:18;;;;;;;17.85;11.73;;;538.00;2406.40;;;;;;4802478;29;20039;-75
2021/07/23 01:37:46;;;;;;;20.52;12.40;;;538.00;2406.40;;;;;;4803659;29;20031;-74
2021/07/23 01:40:13;;;;;;;19.75;12.48;;;538.10;2406.40;;;;;;4803311;29;20042;-74
2021/07/23 01:42:40;;;;;;;18.42;12.32;;;538.10;2406.40;;;;;;4787874;29;20522;-74
2021/07/23 01:45:06;;;;;;;19.13;12.13;;;538.10;2406.40;;;;;;4796324;29;20041;-75
2021/07/23 01:47:33;;;;;;;17.33;11.27;;;538.10;2406.40;;;;;;4798362;29;20039;-74
2021/07/23 01:49:59;;;;;;;17.02;12.60;;;538.00;2406.40;;;;;;4800278;29;20054;-74
2021/07/23 01:52:25;;;;;;;19.75;12.00;;;538.10;2406.40;;;;;;4796655;29;20046;-74
2021/07/23 01:54:50;;;;;;;16.83;12.20;;;538.10;2406.40;;;;;;4794574;29;20038;-74
2021/07/23 01:57:17;;;;;;;19.90;12.55;;;538.10;2406.40;;;;;;4799088;29;20043;-74
2021/07/23 01:59:43;;;;;;;20.95;13.20;;;538.10;2406.40;;;;;;4828646;29;20048;-74
2021/07/23 02:02:09;;;;;;;16.80;12.63;;;538.10;2406.40;;;;;;4837214;29;20026;-74
2021/07/23 02:04:35;;;;;;;21.98;13.55;;;538.10;2406.40;;;;;;4837005;29;20034;-74
2021/07/23 02:07:00;;;;;;;22.33;14.07;;;538.00;2406.40;;;;;;4836212;29;20026;-74
2021/07/23 02:09:26;;;;;;;18.80;13.77;;;537.90;2406.40;;;;;;4834227;29;20033;-74
2021/07/23 02:11:52;;;;;;;16.67;12.25;;;537.80;2406.40;;;;;;4845095;29;20026;-73
2021/07/23 02:14:18;;;;;;;16.58;13.50;;;537.80;2406.40;;;;;;4841206;29;20363;-73
2021/07/23 02:16:44;;;;;;;16.90;13.52;;;537.80;2406.40;;;;;;4841794;29;20101;-73
2021/07/23 02:19:10;;;;;;;16.85;13.48;;;537.80;2406.40;;;;;;4838273;29;20054;-74
2021/07/23 02:21:36;;;;;;;18.73;13.52;;;537.80;2406.40;;;;;;4836159;29;20829;-73
2021/07/23 02:24:05;;;;;;;17.17;13.63;;;537.60;2406.40;;;;;;4835407;29;20046;-74
2021/07/23 02:26:31;;;;;;;17.55;13.63;;;537.60;2406.40;;;;;;4837262;29;20034;-74
2021/07/23 02:28:57;;;;;;;20.35;14.75;;;537.60;2406.40;;;;;;4839937;29;20022;-73
2021/07/23 02:31:24;;;;;;;20.85;14.45;;;537.70;2406.40;;;;;;4841438;29;20062;-73
2021/07/23 02:33:50;;;;;;;19.15;13.52;;;537.70;2406.40;;;;;;4839895;29;20026;-73
2021/07/23 02:36:15;;;;;;;20.52;13.95;;;537.70;2406.40;;;;;;4841434;29;20056;-73
2021/07/23 02:38:41;;;;;;;20.70;15.60;;;537.70;2406.40;;;;;;4839833;29;20034;-73
2021/07/23 02:41:07;;;;;;;21.70;13.63;;;537.80;2406.40;;;;;;4839990;29;20179;-74
2021/07/23 02:43:33;;;;;;;19.83;13.52;;;537.80;2406.40;;;;;;4839954;29;20254;-74
2021/07/23 02:45:59;;;;;;;20.30;15.15;;;537.70;2406.40;;;;;;4841185;29;20025;-74
2021/07/23 02:48:25;;;;;;;19.83;13.68;;;537.70;2406.40;;;;;;4839970;29;20034;-74
2021/07/23 02:50:51;;;;;;;17.45;14.05;;;537.70;2406.40;;;;;;4840957;29;20482;-74
2021/07/23 02:53:18;;;;;;;19.65;14.75;;;512.90;2380.80;;;;;;4841253;29;20034;-74
2021/07/23 02:55:44;;;;;;;21.92;15.02;;;512.80;2380.80;;;;;;4839725;29;20037;-74
2021/07/23 02:58:11;;;;;;;16.23;13.55;;;512.80;2380.80;;;;;;4840016;29;20390;-74
2021/07/23 03:00:36;;;;;;;23.80;14.48;;;512.90;2380.80;;;;;;4839493;29;20026;-74
2021/07/23 03:03:05;;;;;;;18.98;14.35;;;512.90;2380.80;;;;;;4841460;29;20426;-74
2021/07/23 03:05:31;;;;;;;21.58;14.68;;;512.90;2380.80;;;;;;4842973;29;20033;-74
2021/07/23 03:07:57;;;;;;;19.65;14.70;;;512.90;2380.80;;;;;;4842248;29;20113;-74
2021/07/23 03:10:22;;;;;;;20.25;14.27;;;512.90;2380.80;;;;;;4842854;29;20030;-74
2021/07/23 03:12:48;;;;;;;22.70;13.98;;;512.90;2380.80;;;;;;4840991;29;20463;-74
2021/07/23 03:15:14;;;;;;;24.15;14.90;;;512.90;2380.80;;;;;;4844024;29;20030;-74
2021/07/23 03:17:40;;;;;;;19.05;14.55;;;512.90;2380.80;;;;;;4843564;29;20085;-74
2021/07/23 03:20:06;;;;;;;19.73;14.88;;;512.90;2380.80;;;;;;4831506;29;20077;-74
2021/07/23 03:22:33;;;;;;;25.48;14.85;;;512.90;2380.80;;;;;;4842550;29;20041;-74
2021/07/23 03:25:01;;;;;;;21.45;14.82;;;537.60;2406.40;;;;;;4843817;29;20033;-75
2021/07/23 03:27:27;;;;;;;18.50;14.15;;;512.90;2380.80;;;;;;4842469;29;20398;-74
2021/07/23 03:29:52;;;;;;;17.63;14.15;;;537.60;2406.40;;;;;;4842324;29;20405;-76
2021/07/23 03:32:18;;;;;;;22.17;13.73;;;537.60;2406.40;;;;;;4842553;29;20033;-75
2021/07/23 03:34:44;;;;;;;20.17;14.25;;;537.70;2406.40;;;;;;4843679;29;20041;-75
2021/07/23 03:37:09;;;;;;;25.17;14.27;;;537.70;2406.40;;;;;;4842755;29;20387;-74
2021/07/23 03:39:35;;;;;;;24.15;15.40;;;537.80;2406.40;;;;;;4843475;29;20140;-74
2021/07/23 03:42:01;;;;;;;20.27;15.07;;;537.70;2406.40;;;;;;4842546;29;20045;-74
2021/07/23 03:44:26;;;;;;;26.77;16.20;;;537.70;2406.40;;;;;;4843483;29;20423;-74
2021/07/23 03:46:52;;;;;;;23.60;15.77;;;537.70;2406.40;;;;;;4843854;29;20599;-74
2021/07/23 03:49:18;;;;;;;20.90;13.85;;;537.60;2406.40;;;;;;4843538;29;20390;-74
2021/07/23 03:51:44;;;;;;;24.15;14.93;;;537.70;2406.40;;;;;;4842690;29;20482;-75
2021/07/23 03:54:09;;;;;;;17.88;13.23;;;537.70;2406.40;;;;;;4843299;29;20033;-74
2021/07/23 03:56:35;;;;;;;23.33;15.38;;;537.70;2406.40;;;;;;4843454;29;20034;-75
2021/07/23 03:59:01;;;;;;;18.08;14.70;;;537.80;2406.40;;;;;;4843355;29;20029;-74
2021/07/23 04:01:26;;;;;;;18.35;13.85;;;537.70;2406.40;;;;;;4842054;29;20030;-75
2021/07/23 04:03:52;;;;;;;22.50;13.38;;;537.80;2406.40;;;;;;4843115;29;20059;-74
2021/07/23 04:06:18;;;;;;;18.73;14.38;;;537.90;2406.40;;;;;;4833471;29;20394;-75
2021/07/23 04:08:44;;;;;;;20.73;13.85;;;538.00;2406.40;;;;;;4836523;29;20038;-75
2021/07/23 04:11:17;;;;;;;21.88;15.05;;;538.10;2406.40;;;;;;4830759;29;20025;-75
2021/07/23 04:13:43;;;;;;;22.42;13.32;;;538.10;2406.40;;;;;;4833467;29;20504;-75
2021/07/23 04:16:09;;;;;;;16.90;13.65;;;538.20;2406.40;;;;;;4842839;29;20042;-74
2021/07/23 04:18:35;;;;;;;19.48;13.77;;;538.20;2406.40;;;;;;4838602;29;20513;-75
2021/07/23 04:21:05;;;;;;;23.38;13.70;;;538.10;2406.40;;;;;;4827861;29;20067;-75
2021/07/23 04:23:31;;;;;;;21.15;13.43;;;538.30;2406.40;;;;;;4831559;29;20450;-74
2021/07/23 04:25:57;;;;;;;23.35;13.50;;;538.30;2406.40;;;;;;4829316;29;20026;-74
2021/07/23 04:28:23;;;;;;;20.38;13.60;;;538.30;2406.40;;;;;;4840588;29;20116;-74
2021/07/23 04:30:49;;;;;;;19.35;13.77;;;538.30;2406.40;;;;;;4841059;29;20124;-74
2021/07/23 04:33:15;;;;;;;22.70;12.93;;;538.50;2406.40;;;;;;4842488;29;20065;-75
2021/07/23 04:35:40;;;;;;;15.90;13.32;;;538.50;2406.40;;;;;;4842781;29;20176;-75
2021/07/23 04:38:06;;;;;;;19.15;14.52;;;538.50;2406.40;;;;;;4842268;29;20038;-74
2021/07/23 04:40:32;;;;;;;19.58;13.30;;;538.50;2406.40;;;;;;4841821;29;20029;-75
2021/07/23 04:42:57;;;;;;;22.02;14.93;;;563.30;2432.00;;;;;;4836736;29;20494;-75
2021/07/23 04:45:23;;;;;;;21.58;15.38;;;563.40;2432.00;;;;;;4842201;29;20026;-75
2021/07/23 04:47:48;;;;;;;16.95;12.52;;;563.70;2432.00;;;;;;4834607;29;20066;-75
2021/07/23 04:50:14;;;;;;;19.30;12.63;;;563.70;2432.00;;;;;;4827311;29;20038;-75
2021/07/23 04:52:40;;;;;;;34.05;15.40;;;564.00;2432.00;;;;;;4841196;29;20612;-75
2021/07/23 04:55:09;;;;;;;17.05;12.63;;;564.00;2432.00;;;;;;4828743;29;20037;-74
2021/07/23 04:57:45;;;;;;;19.25;14.02;;;588.80;2432.00;;;;;;4835531;29;20575;-76
2021/07/23 05:00:11;;;;;;;;;;;588.80;2432.00;;;;;;4832080;29;20049;-74
2021/07/23 05:02:38;;;;;;;16.92;12.30;;;564.10;2432.00;;;;;;4836145;29;19913;-74
2021/07/23 05:05:05;;;;;;;19.25;13.95;;;588.80;2432.00;;;;;;4839818;29;20446;-75
2021/07/23 05:07:31;;;;;;;16.92;12.07;;;588.90;2432.00;;;;;;4831109;29;20031;-75
2021/07/23 05:09:57;;;;;;;19.50;15.20;;;589.20;2432.00;;;;;;4836139;29;20028;-74
2021/07/23 05:12:23;;;;;;;21.70;13.95;;;588.90;2432.00;;;;;;4829512;29;20869;-75
2021/07/23 05:14:49;;;;;;;20.05;13.98;;;589.30;2432.00;;;;;;4834853;29;20105;-75
2021/07/23 05:17:15;;;;;;;35.03;20.27;;;589.40;2432.00;;;;;;4835813;29;20033;-74
2021/07/23 05:19:41;;;;;;;27.92;19.23;;;589.50;2432.00;;;;;;4835882;29;20045;-75
2021/07/23 05:22:11;;;;;;;28.15;18.98;;;589.70;2432.00;;;;;;4832736;29;20077;-74
2021/07/23 05:24:37;;;;;;;27.88;18.63;;;614.60;2432.00;;;;;;4835062;29;20117;-75
2021/07/23 05:27:03;;;;;;;24.35;17.00;;;614.60;2432.00;;;;;;4835442;29;20125;-74
2021/07/23 05:29:29;;;;;;;20.65;15.95;;;614.90;2432.00;;;;;;4842017;29;20373;-75
2021/07/23 05:31:54;;;;;;;22.52;16.70;;;614.90;2432.00;;;;;;4839342;29;20145;-75
2021/07/23 05:34:21;;;;;;;25.23;17.20;;;614.90;2432.00;;;;;;4822915;29;20121;-74
2021/07/23 05:36:48;;;;;;;23.35;17.48;;;615.10;2432.00;;;;;;4836486;29;20050;-75
2021/07/23 05:39:13;;;;;;;21.15;15.13;;;640.00;2432.00;;;;;;4829338;29;20381;-75
2021/07/23 05:41:39;;;;;;;19.98;14.88;;;640.20;2432.00;;;;;;4840094;29;20128;-75
2021/07/23 05:44:05;;;;;;;22.63;14.60;;;640.30;2432.00;;;;;;4840301;29;20121;-75
2021/07/23 05:46:32;;;;;;;26.42;14.63;;;640.60;2432.00;;;;;;4840508;29;20486;-74
2021/07/23 05:48:58;;;;;;;17.23;13.40;;;640.80;2432.00;;;;;;4830272;29;20521;-74
2021/07/23 05:51:24;;;;;;;21.48;13.13;;;665.70;2432.00;;;;;;4841750;29;20113;-75
2021/07/23 05:53:49;;;;;;;18.35;13.68;;;665.80;2432.00;;;;;;4841621;29;20064;-75
2021/07/23 05:56:15;;;;;;;20.25;13.27;;;665.80;2432.00;;;;;;4832413;29;20505;-75
2021/07/23 05:58:41;;;;;;;18.75;13.68;;;666.20;2432.00;;;;;;4833695;29;20559;-74
2021/07/23 06:01:07;;;;;;;16.42;13.02;;;666.10;2432.00;;;;;;4837253;29;20026;-75
2021/07/23 06:03:35;;;;;;;15.15;11.80;;;666.30;2432.00;;;;;;4840057;29;20053;-75
2021/07/23 06:06:04;;;;;;;19.63;12.95;;;691.20;2432.00;;;;;;4839641;29;20506;-75
2021/07/23 06:08:30;;;;;;;22.92;13.13;;;691.40;2432.00;;;;;;4837003;29;20371;-75
2021/07/23 06:10:56;;;;;;;14.25;11.48;;;691.40;2432.00;;;;;;4841148;29;20030;-75
2021/07/23 06:13:22;;;;;;;19.02;12.57;;;691.70;2432.00;;;;;;4841169;29;20030;-75
2021/07/23 06:15:48;;;;;;;22.75;13.23;;;692.00;2432.00;;;;;;4839957;29;20516;-75
2021/07/23 06:18:14;;;;;;;19.80;16.85;;;692.10;2432.00;;;;;;4839993;29;20034;-75
2021/07/23 06:20:41;;;;;;;27.00;22.35;;;716.80;2432.00;;;;;;4841009;29;20171;-75
2021/07/23 06:23:06;;;;;;;28.15;18.25;;;716.80;2432.00;;;;;;4841089;29;20506;-75
2021/07/23 06:25:32;;;;;;;22.00;18.65;;;717.10;2432.00;;;;;;4841376;29;20035;-75
2021/07/23 06:27:58;;;;;;;15.27;12.13;;;717.20;2432.00;;;;;;4840821;29;20086;-75
2021/07/23 06:30:24;;;;;;;12.93;11.10;;;717.10;2432.00;;;;;;4840386;29;20038;-75
2021/07/23 06:32:50;;;;;;;17.60;12.60;;;717.10;2432.00;;;;;;4840751;29;20041;-75
2021/07/23 06:35:15;;;;;;;17.70;11.95;;;717.50;2432.00;;;;;;4841220;29;20034;-75
2021/07/23 06:37:41;;;;;;;20.15;11.63;;;717.70;2432.00;;;;;;4841435;29;20113;-75
2021/07/23 06:40:09;;;;;;;11.77;9.85;;;742.40;2432.00;;;;;;4842556;29;20086;-75
2021/07/23 06:42:36;;;;;;;17.42;10.18;;;717.70;2432.00;;;;;;4843997;29;20093;-75
2021/07/23 06:45:03;;;;;;;17.00;11.10;;;742.70;2432.00;;;;;;4844199;29;20537;-75
2021/07/23 06:47:28;;;;;;;16.67;9.20;;;742.80;2406.40;;;;;;4842673;29;20033;-74
2021/07/23 06:49:54;;;;;;;11.43;8.57;;;742.90;2304.00;;;;;;4843892;29;20363;-75
2021/07/23 06:52:20;;;;;;;13.35;10.00;;;743.10;2278.40;;;;;;4844125;29;20045;-75
2021/07/23 06:54:48;;;;;;;16.08;10.43;;;768.00;2227.20;;;;;;4843915;29;20080;-75
2021/07/23 06:57:14;;;;;;;12.32;9.23;;;768.00;2201.60;;;;;;4833614;29;20045;-75
2021/07/23 06:59:40;;;;;;;13.50;10.13;;;768.00;2227.20;;;;;;4833538;29;20027;-75
2021/07/23 07:02:06;;;;;;;14.25;9.82;;;768.00;2252.80;;;;;;4836042;29;20026;-75
2021/07/23 07:04:32;;;;;;;11.70;8.63;;;768.10;2176.00;;;;;;4839644;29;20027;-75
2021/07/23 07:06:58;;;;;;;16.25;10.23;;;768.20;2176.00;;;;;;4842180;29;20041;-75
2021/07/23 07:09:26;;;;;;;11.70;8.05;;;768.20;2201.60;;;;;;4842982;29;20052;-75
2021/07/23 07:11:52;;;;;;;14.20;9.90;;;768.40;2176.00;;;;;;4837944;29;20117;-75
2021/07/23 07:14:19;;;;;;;12.57;8.52;;;768.60;2150.40;;;;;;4841100;29;20121;-75
2021/07/23 07:16:44;;;;;;;10.00;7.57;;;768.60;2073.60;;;;;;4838482;29;20038;-75
2021/07/23 07:19:10;;;;;;;17.98;10.07;;;768.50;2124.80;;;;;;4837514;29;20119;-75
2021/07/23 07:21:36;;;;;;;15.05;9.18;;;768.40;2073.60;;;;;;4838557;29;20136;-75
2021/07/23 07:24:02;;;;;;;18.13;9.13;;;768.50;2099.20;;;;;;4840556;29;20111;-76
2021/07/23 07:26:28;;;;;;;12.60;8.20;;;768.40;2099.20;;;;;;4839413;29;20030;-76
2021/07/23 07:28:54;;;;;;;10.98;8.75;;;768.70;2073.60;;;;;;4843928;29;20022;-75
2021/07/23 07:31:21;;;;;;;18.25;9.48;;;768.80;2073.60;;;;;;4843585;29;20030;-75
2021/07/23 07:33:46;;;;;;;16.70;8.32;;;793.70;2048.00;;;;;;4842448;29;20030;-76
2021/07/23 07:36:18;;;;;;;11.25;7.70;;;793.80;2022.40;;;;;;4842474;29;20486;-76
2021/07/23 07:38:45;;;;;;;16.88;8.68;;;794.10;1996.80;;;;;;4841675;29;20109;-75
2021/07/23 07:41:18;;;;;;;10.88;8.20;;;794.10;1996.80;;;;;;4843831;29;20030;-75
2021/07/23 07:43:45;;;;;;;10.02;7.88;;;794.40;1996.80;;;;;;4840662;29;20489;-76
2021/07/23 07:46:10;;;;;;;10.95;7.72;;;819.20;1945.60;;;;;;4843494;29;20041;-75
2021/07/23 07:48:36;;;;;;;11.80;8.02;;;794.10;1920.00;;;;;;4842243;29;20038;-75
2021/07/23 07:51:02;;;;;;;14.55;9.57;;;819.20;1920.00;;;;;;4843768;29;20385;-76
2021/07/23 07:53:27;;;;;;;12.65;8.27;;;819.20;1920.00;;;;;;4843195;29;20489;-75
2021/07/23 07:55:53;;;;;;;13.90;8.07;;;819.60;1894.40;;;;;;4840166;29;20034;-75
2021/07/23 07:58:19;;;;;;;12.82;8.68;;;819.40;1868.80;;;;;;4838661;29;20091;-75
2021/07/23 08:00:45;;;;;;;11.02;7.30;;;819.80;1843.20;;;;;;4838631;29;20025;-75
2021/07/23 08:03:10;;;;;;;8.18;7.28;;;819.90;1817.60;;;;;;4840261;29;20035;-74
2021/07/23 08:05:36;;;;;;;8.07;6.78;;;819.70;1817.60;;;;;;4829359;29;20121;-75
2021/07/23 08:08:04;;;;;;;17.70;9.15;;;819.40;1792.00;;;;;;4841114;29;20033;-75
2021/07/23 08:10:33;;;;;;;9.95;7.07;;;819.40;1766.40;;;;;;4836211;29;20407;-75
2021/07/23 08:12:59;;;;;;;10.32;6.90;;;819.90;1740.80;;;;;;4834644;29;20065;-75
2021/07/23 08:15:25;;;;;;;12.88;7.53;;;844.80;1740.80;;;;;;4832687;29;20065;-75
2021/07/23 08:17:51;;;;;;;8.27;6.65;;;844.80;1740.80;;;;;;4829535;29;20041;-76
2021/07/23 08:20:17;;;;;;;14.63;9.57;;;845.30;1715.20;;;;;;4839549;29;20050;-75
2021/07/23 08:22:44;;;;;;;13.40;7.50;;;845.30;1689.60;;;;;;4842278;29;20481;-75
2021/07/23 08:25:10;;;;;;;12.23;9.52;;;845.30;1664.00;;;;;;4841842;29;20030;-75
2021/07/23 08:27:35;;;;;;;13.25;7.40;;;845.30;1638.40;;;;;;4841123;29;20026;-75
2021/07/23 08:30:02;;;;;;;16.42;8.32;;;845.50;1638.40;;;;;;4836453;29;20080;-75
2021/07/23 08:32:34;;;;;;;10.00;7.57;;;845.50;1664.00;;;;;;4830591;29;20394;-75
2021/07/23 08:35:00;;;;;;;10.82;7.43;;;870.40;1612.80;;;;;;4841540;29;20387;-75
2021/07/23 08:37:25;;;;;;;15.77;6.72;;;845.50;1587.20;;;;;;4840365;29;20041;-75
2021/07/23 08:39:51;;;;;;;8.15;5.88;;;845.40;1561.60;;;;;;4842419;29;20406;-75
2021/07/23 08:42:30;;;;;;;8.95;6.07;;;845.40;1536.00;;;;;;4839486;29;20094;-75
2021/07/23 08:44:59;;;;;;;8.05;6.00;;;845.40;1510.40;;;;;;4834844;29;20076;-76
2021/07/23 08:47:25;;;;;;;11.00;6.97;;;845.70;1433.60;;;;;;4841967;29;20034;-75
2021/07/23 08:49:53;;;;;;;7.03;5.55;;;870.90;1408.00;;;;;;4840310;29;20050;-75
2021/07/23 08:52:44;;;;;;;8.63;5.80;;;870.60;1382.40;;;;;;4836238;29;20022;-75
2021/07/23 08:55:13;;;;;;;8.38;6.22;;;870.60;1408.00;;;;;;4838405;29;20022;-75
2021/07/23 08:57:39;;;;;;;8.75;6.18;;;870.40;1433.60;;;;;;4838493;29;20102;-75
2021/07/23 09:00:13;;;;;;;10.40;6.50;;;870.40;1459.20;;;;;;4839554;29;20034;-74
2021/07/23 09:02:54;;;;;;;13.68;6.32;;;870.60;1433.60;;;;;;4829705;29;20512;-75
2021/07/23 09:05:25;;;;;;;8.73;6.43;;;870.90;1408.00;;;;;;4837368;29;20517;-75
2021/07/23 09:07:51;;;;;;;9.43;6.57;;;870.90;1408.00;;;;;;4834710;29;20042;-75
2021/07/23 09:10:24;;;;;;;12.02;5.93;;;871.00;1408.00;;;;;;4838068;29;20029;-75
2021/07/23 09:12:53;;;;;;;8.95;6.35;;;896.10;1356.80;;;;;;4838971;29;20761;-75
2021/07/23 09:15:25;;;;;;;8.48;6.03;;;896.50;1331.20;;;;;;4838695;29;20439;-75
2021/07/23 09:17:52;;;;;;;12.55;6.05;;;896.70;1280.00;;;;;;4833759;29;20463;-74
2021/07/23 09:20:23;;;;;;;15.27;5.70;;;896.50;1305.60;;;;;;4838015;29;20190;-73
2021/07/23 09:23:01;;;;;;;7.53;5.75;;;896.40;1280.00;;;;;;4837091;29;20132;-73
2021/07/23 09:25:37;;;;;;;8.60;5.50;;;896.70;1254.40;;;;;;4837498;29;20057;-75
2021/07/23 09:28:19;;;;;;;9.60;5.68;;;921.70;1254.40;;;;;;4836544;29;20190;-76
2021/07/23 09:30:45;;;;;;;8.30;5.80;;;922.00;1254.40;;;;;;4839716;29;20109;-75
2021/07/23 09:33:12;;;;;;;10.18;5.97;;;921.90;1280.00;;;;;;4838620;29;20034;-78
2021/07/23 09:35:50;;;;;;;6.95;5.20;;;922.10;1228.80;;;;;;4839906;29;20089;-75
2021/07/23 09:38:16;;;;;;;8.30;6.22;;;921.60;1254.40;;;;;;4839764;29;20105;-75
2021/07/23 09:40:43;;;;;;;10.48;5.55;;;921.90;1254.40;;;;;;4840277;29;20041;-75
2021/07/23 09:43:09;;;;;;;6.38;4.80;;;921.90;1228.80;;;;;;4839072;29;20026;-74
2021/07/23 09:45:36;;;;;;;7.25;5.60;;;921.90;1228.80;;;;;;4840101;29;20159;-76
2021/07/23 09:48:12;;;;;;;7.45;5.97;;;922.00;1228.80;;;;;;4838206;29;20022;-76
2021/07/23 09:50:43;;;;;;;7.50;5.30;;;922.40;1152.00;;;;;;4840446;29;20037;-75
2021/07/23 09:53:10;;;;;;;6.90;5.38;;;947.60;1152.00;;;;;;4839878;29;20379;-75
2021/07/23 09:55:36;;;;;;;6.95;5.60;;;947.60;1126.40;;;;;;4840540;29;20034;-76
2021/07/23 09:58:06;;;;;;;9.05;6.10;;;947.20;1152.00;;;;;;4837825;29;20129;-76
2021/07/23 10:00:41;;;;;;;9.93;6.00;;;947.20;1152.00;;;;;;4839744;29;20030;-76
2021/07/23 10:03:13;;;;;;;7.38;5.70;;;947.70;1100.80;;;;;;4837941;29;20036;-75
2021/07/23 10:05:53;;;;;;;7.20;5.57;;;948.00;1126.40;;;;;;4835203;29;20056;-77
2021/07/23 10:08:26;;;;;;;10.25;5.25;;;947.70;1100.80;;;;;;4836011;29;20033;-76
2021/07/23 10:10:53;;;;;;;7.68;6.13;;;948.10;1100.80;;;;;;4841240;29;20026;-76
2021/07/23 10:13:21;;;;;;;8.20;6.15;;;972.90;1126.40;;;;;;4844556;29;20385;-76
2021/07/23 10:15:49;;;;;;;7.70;5.30;;;947.20;1126.40;;;;;;4843234;29;20044;-76
2021/07/23 10:18:16;;;;;;;7.50;6.50;;;947.30;1126.40;;;;;;4833194;29;20412;-76
2021/07/23 10:20:43;;;;;;;9.50;6.82;;;947.30;1100.80;;;;;;4841737;29;20068;-76
2021/07/23 10:23:09;;;;;;;7.95;6.20;;;948.10;1100.80;;;;;;4844160;29;20034;-76
2021/07/23 10:25:36;;;;;;;8.43;5.78;;;972.90;1100.80;;;;;;4842353;29;20033;-76
2021/07/23 10:28:02;;;;;;;8.68;5.57;;;972.90;1100.80;;;;;;4842128;29;20050;-76
2021/07/23 10:30:28;;;;;;;7.10;6.05;;;973.70;1075.20;;;;;;4844453;29;20058;-76
2021/07/23 10:32:53;;;;;;;6.57;5.88;;;998.60;1075.20;;;;;;4837120;29;20031;-76
2021/07/23 10:35:25;;;;;;;7.65;5.97;;;973.50;1075.20;;;;;;4840181;29;20044;-76
2021/07/23 10:37:52;;;;;;;6.85;5.97;;;973.70;1075.20;;;;;;4837558;29;20038;-76
2021/07/23 10:40:20;;;;;;;6.50;5.03;;;973.70;1075.20;;;;;;4839346;29;20114;-76
2021/07/23 10:42:46;;;;;;;9.60;5.53;;;998.90;1075.20;;;;;;4840273;29;20417;-76
2021/07/23 10:45:19;;;;;;;10.80;5.70;;;999.10;1100.80;;;;;;4844012;29;20026;-75
2021/07/23 10:47:50;;;;;;;7.40;5.32;;;998.90;1100.80;;;;;;4842741;29;20470;-75
2021/07/23 10:50:23;;;;;;;8.45;6.25;;;999.20;1075.20;;;;;;4843722;29;20093;-75
2021/07/23 10:52:49;;;;;;;6.90;5.28;;;999.10;1075.20;;;;;;4843735;29;20032;-75
2021/07/23 10:55:21;;;;;;;7.93;5.65;;;998.90;1049.60;;;;;;4841796;29;20048;-75
2021/07/23 10:58:07;;;;;;;8.38;5.45;;;998.90;1075.20;;;;;;4841705;29;20034;-75
2021/07/23 11:00:55;;;;;;;10.13;5.65;;;1024.20;1049.60;;;;;;4834165;29;20099;-75
2021/07/23 11:03:52;;;;;;;7.68;5.13;;;1024.00;1049.60;;;;;;4838300;29;20033;-75
2021/07/23 11:06:22;;;;;;;6.38;5.60;;;999.30;1024.00;;;;;;4804123;29;20081;-75
2021/07/23 11:08:52;;;;;;;6.55;5.88;;;1024.80;998.40;;;;;;4794977;29;20427;-76
2021/07/23 11:11:20;;;;;;;8.27;6.10;;;1049.80;1024.00;;;;;;4794765;29;20118;-75
2021/07/23 11:13:46;;;;;;;7.57;5.80;;;1049.90;998.40;;;;;;4803752;29;20039;-75
2021/07/23 11:16:14;;;;;;;7.25;5.68;;;1050.30;998.40;;;;;;4803925;29;20534;-75
2021/07/23 11:18:53;;;;;;;7.03;5.85;;;1024.40;998.40;;;;;;4804990;29;20053;-76
2021/07/23 11:21:19;;;;;;;9.25;5.70;;;998.90;1049.60;;;;;;4791758;29;20051;-75
2021/07/23 11:23:46;;;;;;;8.10;6.50;;;998.80;1049.60;;;;;;4804436;29;20498;-75
2021/07/23 11:26:22;;;;;;;7.13;5.25;;;998.60;1049.60;;;;;;4805147;29;20027;-76
2021/07/23 11:28:58;;;;;;;6.97;5.65;;;973.30;1049.60;;;;;;4805022;29;20593;-75
2021/07/23 11:31:32;;;;;;;6.35;5.75;;;998.40;1075.20;;;;;;4805513;29;20092;-75
2021/07/23 11:34:00;;;;;;;10.43;7.53;;;998.70;1049.60;;;;;;4805013;29;20031;-75
2021/07/23 11:36:53;;;;;;;7.50;5.70;;;999.20;1024.00;;;;;;4796419;29;20031;-75
2021/07/23 11:39:25;;;;;;;7.47;4.80;;;999.30;1024.00;;;;;;4793453;29;20034;-76
2021/07/23 11:42:04;;;;;;;6.35;5.55;;;999.00;1024.00;;;;;;4793614;29;20045;-76
2021/07/23 11:44:31;;;;;;;9.23;5.50;;;1024.60;998.40;;;;;;4836404;29;20053;-76
2021/07/23 11:46:57;;;;;;;9.73;5.53;;;1024.40;998.40;;;;;;4834298;29;20029;-76
2021/07/23 11:49:28;;;;;;;5.90;4.88;;;1024.00;1024.00;;;;;;4842438;29;20034;-77
2021/07/23 11:51:54;;;;;;;7.28;5.47;;;1024.00;998.40;;;;;;4841691;29;20064;-76
2021/07/23 11:54:20;;;;;;;5.90;5.20;;;973.30;1049.60;;;;;;4840395;29;20490;-76
2021/07/23 11:56:46;;;;;;;7.43;5.35;;;947.60;1049.60;;;;;;4833926;29;20039;-76
2021/07/23 11:59:12;;;;;;;7.80;5.50;;;948.00;1049.60;;;;;;4841961;29;20029;-76
2021/07/23 12:01:40;;;;;;;7.03;5.47;;;948.00;1049.60;;;;;;4826365;29;20057;-77
2021/07/23 12:04:07;;;;;;;6.00;5.05;;;922.50;1075.20;;;;;;4827064;29;20482;-75
2021/07/23 12:06:33;;;;;;;8.20;4.80;;;921.70;1126.40;;;;;;4829276;29;20033;-76
2021/07/23 12:09:03;;;;;;;8.00;5.97;;;896.30;1126.40;;;;;;4832401;29;20026;-76